createdAt,value
2022-09-09T00:01:53.314Z,65.70
2022-09-09T00:04:29.397Z,66.10
2022-09-09T00:07:15.625Z,66.40
2022-09-09T00:09:50.090Z,66.90
2022-09-09T00:12:23.029Z,67.00
2022-09-09T00:14:56.353Z,66.80
2022-09-09T00:17:36.765Z,65.90
2022-09-09T00:20:11.620Z,66.00
2022-09-09T00:22:44.924Z,65.60
2022-09-09T00:25:17.814Z,65.40
2022-09-09T00:27:48.681Z,65.00
2022-09-09T00:30:23.137Z,65.10
2022-09-09T00:32:52.420Z,65.10
2022-09-09T00:35:24.773Z,65.00
2022-09-09T00:37:56.416Z,65.50
2022-09-09T00:40:30.837Z,65.50
2022-09-09T00:43:20.538Z,65.50
2022-09-09T00:46:15.448Z,65.50
2022-09-09T00:48:53.156Z,65.50
2022-09-09T00:51:28.742Z,65.50
2022-09-09T00:54:26.320Z,66.10
2022-09-09T00:57:04.372Z,66.00
2022-09-09T00:59:45.112Z,66.20
2022-09-09T01:02:24.257Z,66.60
2022-09-09T01:04:52.103Z,66.70
2022-09-09T01:07:20.943Z,67.10
2022-09-09T01:09:56.657Z,67.40
2022-09-09T01:12:44.639Z,67.70
2022-09-09T01:15:17.758Z,67.90
2022-09-09T01:17:55.439Z,68.90
2022-09-09T01:20:26.715Z,69.50
2022-09-09T01:23:21.136Z,70.20
2022-09-09T01:26:15.400Z,70.40
2022-09-09T01:28:46.119Z,71.50
2022-09-09T01:31:18.979Z,71.30
2022-09-09T01:33:46.968Z,71.20
2022-09-09T01:36:21.804Z,71.00
2022-09-09T01:38:49.765Z,71.10
2022-09-09T01:41:19.056Z,71.60
2022-09-09T01:43:47.044Z,71.00
2022-09-09T01:46:15.476Z,70.70
2022-09-09T01:48:44.331Z,71.60
2022-09-09T01:51:12.453Z,72.10
2022-09-09T01:53:42.317Z,72.30
2022-09-09T01:56:23.555Z,73.10
2022-09-09T01:59:05.229Z,74.60
2022-09-09T02:01:45.718Z,74.90
2022-09-09T02:04:29.398Z,73.90
2022-09-09T02:06:58.916Z,74.40
2022-09-09T02:09:28.275Z,74.40
2022-09-09T02:12:03.435Z,74.60
2022-09-09T02:14:34.557Z,75.10
2022-09-09T02:17:09.459Z,74.80
2022-09-09T02:19:41.125Z,74.90
2022-09-09T02:22:09.077Z,75.80
2022-09-09T02:24:39.676Z,76.00
2022-09-09T02:27:10.889Z,77.10
2022-09-09T02:29:42.205Z,76.80
2022-09-09T02:32:14.047Z,76.80
2022-09-09T02:34:45.050Z,77.00
2022-09-09T02:37:15.028Z,76.90
2022-09-09T02:39:42.915Z,77.10
2022-09-09T02:42:12.268Z,77.60
2022-09-09T02:44:40.286Z,77.60
2022-09-09T02:47:17.479Z,77.30
2022-09-09T02:49:52.852Z,76.60
2022-09-09T02:52:27.917Z,76.00
2022-09-09T02:55:01.806Z,75.20
2022-09-09T02:57:33.813Z,74.70
2022-09-09T03:00:02.637Z,74.60
2022-09-09T03:02:31.266Z,74.80
2022-09-09T03:04:59.457Z,75.80
2022-09-09T03:07:28.365Z,79.30
2022-09-09T03:09:56.234Z,82.00
2022-09-09T03:12:24.053Z,85.60
2022-09-09T03:14:53.253Z,89.90
2022-09-09T03:17:21.092Z,93.00
2022-09-09T03:19:50.476Z,94.60
2022-09-09T03:22:18.655Z,95.50
2022-09-09T03:24:47.647Z,96.80
2022-09-09T03:27:16.276Z,96.60
2022-09-09T03:29:44.109Z,96.20
2022-09-09T03:32:13.795Z,97.20
2022-09-09T03:34:41.614Z,98.80
2022-09-09T03:37:09.485Z,99.90
2022-09-09T03:39:37.285Z,99.90
2022-09-09T03:42:06.626Z,99.90
2022-09-09T03:44:34.388Z,99.90
2022-09-09T03:47:02.290Z,99.90
2022-09-09T03:49:31.504Z,99.90
2022-09-09T03:51:59.960Z,99.90
2022-09-09T03:54:28.257Z,99.90
2022-09-09T03:56:56.063Z,99.90
2022-09-09T03:59:23.999Z,99.90
2022-09-09T04:01:52.080Z,99.90
2022-09-09T04:04:20.883Z,99.90
2022-09-09T04:06:51.917Z,99.90
2022-09-09T04:09:19.763Z,99.90
2022-09-09T04:11:47.597Z,99.90
2022-09-09T04:14:15.401Z,99.90
2022-09-09T04:16:45.534Z,99.90
2022-09-09T04:19:14.578Z,99.90
2022-09-09T04:21:43.305Z,99.90
2022-09-09T04:24:12.479Z,99.90
2022-09-09T04:26:40.484Z,99.90
2022-09-09T04:29:08.631Z,99.90
2022-09-09T04:31:36.533Z,99.90
2022-09-09T04:34:06.217Z,99.90
2022-09-09T04:36:34.207Z,99.90
2022-09-09T04:39:02.517Z,99.90
2022-09-09T04:41:32.319Z,99.90
2022-09-09T04:44:00.713Z,99.90
2022-09-09T04:46:28.509Z,99.90
2022-09-09T04:48:56.370Z,99.90
2022-09-09T04:51:24.546Z,99.90
2022-09-09T04:53:54.818Z,99.90
2022-09-09T04:56:22.814Z,99.90
2022-09-09T04:58:52.017Z,99.90
2022-09-09T05:01:22.522Z,99.90
2022-09-09T05:03:50.746Z,99.90
2022-09-09T05:06:20.991Z,99.90
2022-09-09T05:08:49.182Z,99.90
2022-09-09T05:11:18.719Z,99.90
2022-09-09T05:13:47.305Z,99.90
2022-09-09T05:16:16.833Z,99.90
2022-09-09T05:18:45.311Z,99.90
2022-09-09T05:21:13.982Z,99.90
2022-09-09T05:23:41.863Z,99.90
2022-09-09T05:26:17.216Z,99.90
2022-09-09T05:28:46.176Z,99.90
2022-09-09T05:31:17.179Z,99.90
2022-09-09T05:33:46.668Z,99.90
2022-09-09T05:36:16.466Z,99.90
2022-09-09T05:38:45.180Z,99.90
2022-09-09T05:41:13.450Z,99.90
2022-09-09T05:43:41.514Z,99.90
2022-09-09T05:46:11.266Z,99.90
2022-09-09T05:48:41.825Z,98.00
2022-09-09T05:51:13.530Z,97.50
2022-09-09T05:53:41.487Z,96.40
2022-09-09T05:56:11.765Z,95.50
2022-09-09T05:58:40.173Z,94.40
2022-09-09T06:01:09.594Z,92.70
2022-09-09T06:03:38.034Z,91.60
2022-09-09T06:06:09.725Z,90.50
2022-09-09T06:08:39.626Z,90.60
2022-09-09T06:11:10.385Z,91.20
2022-09-09T06:13:39.811Z,90.60
2022-09-09T06:16:10.044Z,90.70
2022-09-09T06:18:37.977Z,92.60
2022-09-09T06:21:09.222Z,94.50
2022-09-09T06:23:37.041Z,96.10
2022-09-09T06:26:07.641Z,93.30
2022-09-09T06:28:35.979Z,93.20
2022-09-09T06:31:06.834Z,92.50
2022-09-09T06:33:36.717Z,91.00
2022-09-09T06:36:07.845Z,92.00
2022-09-09T06:38:35.727Z,89.80
2022-09-09T06:41:04.028Z,91.30
2022-09-09T06:43:31.914Z,92.70
2022-09-09T06:46:01.483Z,90.70
2022-09-09T06:48:30.007Z,91.60
2022-09-09T06:51:07.306Z,90.50
2022-09-09T06:53:36.706Z,91.10
2022-09-09T06:56:18.893Z,90.00
2022-09-09T06:58:47.368Z,88.60
2022-09-09T07:01:16.737Z,89.90
2022-09-09T07:03:47.342Z,89.20
2022-09-09T07:06:18.949Z,88.10
2022-09-09T07:08:56.197Z,88.20
2022-09-09T07:11:27.792Z,88.20
2022-09-09T07:13:55.876Z,88.10
2022-09-09T07:16:25.779Z,88.20
2022-09-09T07:18:58.575Z,84.30
2022-09-09T07:21:29.744Z,82.70
2022-09-09T07:23:59.816Z,79.60
2022-09-09T07:26:29.794Z,77.60
2022-09-09T07:28:58.222Z,78.30
2022-09-09T07:31:27.929Z,77.80
2022-09-09T07:33:56.040Z,79.20
2022-09-09T07:36:27.925Z,80.40
2022-09-09T07:39:01.223Z,78.80
2022-09-09T07:41:32.230Z,78.70
2022-09-09T07:44:00.086Z,79.00
2022-09-09T07:46:29.008Z,79.80
2022-09-09T07:48:59.088Z,80.50
2022-09-09T07:51:28.799Z,80.20
2022-09-09T07:54:01.072Z,80.20
2022-09-09T07:56:29.836Z,80.80
2022-09-09T07:58:59.640Z,81.50
2022-09-09T08:01:29.892Z,83.70
2022-09-09T08:04:02.054Z,83.30
2022-09-09T08:06:32.006Z,86.30
2022-09-09T08:09:01.877Z,86.50
2022-09-09T08:11:32.449Z,85.10
2022-09-09T08:14:03.791Z,86.30
2022-09-09T08:16:33.386Z,84.90
2022-09-09T08:19:01.510Z,83.20
2022-09-09T08:21:31.547Z,84.80
2022-09-09T08:24:03.252Z,82.40
2022-09-09T08:26:33.060Z,80.60
2022-09-09T08:29:02.571Z,79.50
2022-09-09T08:31:32.590Z,78.80
2022-09-09T08:34:01.383Z,76.30
2022-09-09T08:36:31.056Z,73.40
2022-09-09T08:38:59.864Z,74.10
2022-09-09T08:41:59.331Z,75.30
2022-09-09T08:44:39.865Z,73.20
2022-09-09T08:47:17.397Z,73.60
2022-09-09T08:50:03.579Z,72.40
2022-09-09T08:52:33.350Z,72.00
2022-09-09T08:55:17.423Z,72.30
2022-09-09T08:57:47.298Z,73.30
2022-09-09T09:00:15.773Z,69.50
2022-09-09T09:02:51.216Z,69.70
2022-09-09T09:05:27.068Z,67.40
2022-09-09T09:08:07.336Z,66.60
2022-09-09T09:10:48.828Z,65.50
2022-09-09T09:13:22.717Z,65.20
2022-09-09T09:15:56.238Z,64.20
2022-09-09T09:18:24.067Z,63.60
2022-09-09T09:20:59.522Z,63.40
2022-09-09T09:23:31.884Z,61.10
2022-09-09T09:26:02.454Z,61.10
2022-09-09T09:28:34.185Z,61.70
2022-09-09T09:31:07.693Z,62.40
2022-09-09T09:33:41.460Z,62.80
2022-09-09T09:36:10.679Z,60.50
2022-09-09T09:41:34.525Z,62.60
2022-09-09T09:44:05.500Z,62.30
2022-09-09T09:46:34.245Z,59.70
2022-09-09T09:49:03.815Z,63.30
2022-09-09T09:51:34.108Z,64.20
2022-09-09T09:54:16.975Z,65.10
2022-09-09T09:56:46.245Z,63.60
2022-09-09T09:59:39.517Z,63.30
2022-09-09T10:02:16.411Z,63.60
2022-09-09T10:04:46.182Z,61.90
2022-09-09T10:07:14.795Z,61.60
2022-09-09T10:09:42.978Z,61.40
2022-09-09T10:12:20.297Z,62.80
2022-09-09T10:14:59.857Z,62.30
2022-09-09T10:17:35.677Z,60.30
2022-09-09T10:20:21.317Z,58.90
2022-09-09T10:22:53.416Z,59.10
2022-09-09T10:25:33.560Z,56.00
2022-09-09T10:28:27.498Z,56.10
2022-09-09T10:31:09.775Z,55.70
2022-09-09T10:33:48.908Z,56.40
2022-09-09T10:36:21.380Z,57.50
2022-09-09T10:38:51.902Z,55.60
2022-09-09T10:41:24.158Z,55.40
2022-09-09T10:44:19.281Z,55.80
2022-09-09T10:47:16.993Z,55.90
2022-09-09T10:49:59.758Z,56.10
2022-09-09T10:52:34.802Z,54.50
2022-09-09T10:55:10.483Z,55.00
2022-09-09T10:57:42.728Z,54.70
2022-09-09T11:00:20.405Z,55.50
2022-09-09T11:02:53.977Z,53.90
2022-09-09T11:05:26.852Z,53.70
2022-09-09T11:08:00.244Z,52.20
2022-09-09T11:10:36.681Z,53.10
2022-09-09T11:13:07.246Z,51.80
2022-09-09T11:15:42.930Z,53.10
2022-09-09T11:18:18.276Z,52.80
2022-09-09T11:20:48.424Z,51.90
2022-09-09T11:23:22.933Z,53.30
2022-09-09T11:25:56.337Z,50.80
2022-09-09T11:28:41.011Z,50.40
2022-09-09T11:31:24.738Z,48.30
2022-09-09T11:34:15.153Z,48.40
2022-09-09T11:37:12.056Z,46.70
2022-09-09T11:40:11.175Z,45.50
2022-09-09T11:42:39.148Z,45.10
2022-09-09T11:45:24.669Z,44.80
2022-09-09T11:47:56.550Z,44.80
2022-09-09T11:50:35.073Z,43.30
2022-09-09T11:53:21.079Z,44.00
2022-09-09T11:55:49.238Z,46.10
2022-09-09T11:58:20.053Z,48.10
2022-09-09T12:00:49.492Z,51.00
2022-09-09T12:03:36.849Z,51.00
2022-09-09T12:06:16.367Z,51.70
2022-09-09T12:08:47.355Z,53.20
2022-09-09T12:11:26.530Z,53.90
2022-09-09T12:13:55.827Z,54.50
2022-09-09T12:16:34.185Z,54.80
2022-09-09T12:19:07.641Z,55.90
2022-09-09T12:21:45.121Z,56.00
2022-09-09T12:24:15.317Z,57.30
2022-09-09T12:26:48.721Z,57.30
2022-09-09T12:29:27.044Z,57.00
2022-09-09T12:32:02.441Z,56.70
2022-09-09T12:34:40.090Z,55.80
2022-09-09T12:37:31.073Z,56.70
2022-09-09T12:40:00.267Z,53.30
2022-09-09T12:42:28.890Z,54.20
2022-09-09T12:44:58.802Z,53.40
2022-09-09T12:47:32.877Z,52.70
2022-09-09T12:50:01.175Z,51.60
2022-09-09T12:52:35.093Z,52.00
2022-09-09T12:55:05.934Z,51.50
2022-09-09T12:57:37.627Z,51.60
2022-09-09T13:00:11.009Z,50.20
2022-09-09T13:02:48.802Z,50.10
2022-09-09T13:05:19.862Z,48.90
2022-09-09T13:07:49.254Z,48.90
2022-09-09T13:10:36.325Z,50.80
2022-09-09T13:13:16.965Z,50.10
2022-09-09T13:15:52.000Z,51.30
2022-09-09T13:18:23.604Z,51.20
2022-09-09T13:20:52.801Z,50.50
2022-09-09T13:23:23.251Z,49.20
2022-09-09T13:25:59.277Z,48.10
2022-09-09T13:28:33.674Z,47.00
2022-09-09T13:31:04.216Z,46.50
2022-09-09T13:33:34.303Z,45.50
2022-09-09T13:36:05.299Z,44.90
2022-09-09T13:38:38.351Z,44.70
2022-09-09T13:41:08.142Z,43.90
2022-09-09T13:43:40.017Z,45.10
2022-09-09T13:46:26.978Z,45.60
2022-09-09T13:48:58.023Z,47.30
2022-09-09T13:51:35.902Z,47.50
2022-09-09T13:54:06.398Z,47.60
2022-09-09T13:56:35.342Z,47.40
2022-09-09T13:59:03.501Z,47.80
2022-09-09T14:01:32.405Z,46.80
2022-09-09T14:04:00.657Z,45.70
2022-09-09T14:06:30.419Z,47.20
2022-09-09T14:08:58.364Z,48.30
2022-09-09T14:11:27.474Z,48.10
2022-09-09T14:13:55.360Z,48.10
2022-09-09T14:16:23.335Z,48.30
2022-09-09T14:18:51.675Z,48.30
2022-09-09T14:21:19.480Z,48.40
2022-09-09T14:23:48.187Z,47.30
2022-09-09T14:26:16.087Z,49.30
2022-09-09T14:28:54.703Z,49.20
2022-09-09T14:31:23.626Z,49.40
2022-09-09T14:33:53.580Z,49.80
2022-09-09T14:36:21.613Z,49.30
2022-09-09T14:38:49.645Z,49.90
2022-09-09T14:41:19.467Z,50.20
2022-09-09T14:43:49.255Z,50.80
2022-09-09T14:46:26.199Z,50.90
2022-09-09T14:51:24.709Z,47.20
2022-09-09T14:53:55.023Z,48.40
2022-09-09T14:56:25.595Z,48.00
2022-09-09T14:58:56.229Z,49.00
2022-09-09T15:01:25.211Z,49.40
2022-09-09T15:03:56.467Z,49.80
2022-09-09T15:06:25.330Z,48.50
2022-09-09T15:08:58.730Z,48.10
2022-09-09T15:11:28.771Z,48.50
2022-09-09T15:13:59.042Z,49.50
2022-09-09T15:16:29.560Z,50.10
2022-09-09T15:19:00.016Z,50.90
2022-09-09T15:21:32.687Z,52.60
2022-09-09T15:24:02.882Z,54.60
2022-09-09T15:26:31.171Z,55.30
2022-09-09T15:29:01.942Z,56.10
2022-09-09T15:31:37.541Z,56.50
2022-09-09T15:34:08.087Z,55.90
2022-09-09T15:36:38.192Z,54.30
2022-09-09T15:39:08.383Z,53.50
2022-09-09T15:41:36.723Z,54.20
2022-09-09T15:44:06.242Z,53.90
2022-09-09T15:46:38.348Z,53.10
2022-09-09T15:49:08.040Z,54.00
2022-09-09T15:51:42.855Z,53.70
2022-09-09T15:54:13.928Z,53.60
2022-09-09T15:56:41.852Z,54.00
2022-09-09T15:59:12.322Z,53.40
2022-09-09T16:01:41.665Z,53.10
2022-09-09T16:04:10.482Z,53.80
2022-09-09T16:06:38.680Z,54.30
2022-09-09T16:09:08.500Z,55.00
2022-09-09T16:11:38.392Z,55.70
2022-09-09T16:14:07.311Z,55.30
2022-09-09T16:16:37.290Z,55.50
2022-09-09T16:19:07.285Z,55.50
2022-09-09T16:21:38.446Z,54.70
2022-09-09T16:24:08.040Z,55.80
2022-09-09T16:26:37.808Z,54.20
2022-09-09T16:29:06.062Z,53.70
2022-09-09T16:31:34.136Z,54.50
2022-09-09T16:34:06.629Z,55.10
2022-09-09T16:36:40.427Z,54.60
2022-09-09T16:39:12.818Z,55.80
2022-09-09T16:41:42.615Z,55.60
2022-09-09T16:44:14.962Z,55.10
2022-09-09T16:46:45.412Z,54.40
2022-09-09T16:49:24.580Z,55.00
2022-09-09T16:51:56.339Z,54.80
2022-09-09T16:54:30.412Z,54.70
2022-09-09T16:57:03.361Z,54.60
2022-09-09T16:59:34.153Z,54.10
2022-09-09T17:02:08.489Z,54.40
2022-09-09T17:04:38.102Z,54.80
2022-09-09T17:07:09.116Z,55.40
2022-09-09T17:09:38.201Z,55.30
2022-09-09T17:12:19.477Z,55.60
2022-09-09T17:14:48.594Z,56.20
2022-09-09T17:17:31.825Z,55.90
2022-09-09T17:20:03.807Z,56.50
2022-09-09T17:22:33.759Z,56.80
2022-09-09T17:25:01.791Z,57.30
2022-09-09T17:27:36.897Z,57.60
2022-09-09T17:30:07.618Z,57.70
2022-09-09T17:32:36.604Z,58.00
2022-09-09T17:35:11.602Z,58.40
2022-09-09T17:37:45.335Z,58.80
2022-09-09T17:40:16.650Z,59.10
2022-09-09T17:42:46.176Z,59.60
2022-09-09T17:45:18.005Z,59.90
2022-09-09T17:47:51.792Z,60.30
2022-09-09T17:50:36.741Z,60.40
2022-09-09T17:53:07.830Z,60.90
2022-09-09T17:55:36.427Z,60.90
2022-09-09T17:58:09.071Z,62.10
2022-09-09T18:00:40.165Z,63.80
2022-09-09T18:03:09.562Z,64.70
2022-09-09T18:05:39.159Z,66.00
2022-09-09T18:08:06.985Z,68.10
2022-09-09T18:10:35.352Z,69.60
2022-09-09T18:13:03.214Z,70.80
2022-09-09T18:15:48.525Z,70.80
2022-09-09T18:18:17.086Z,71.80
2022-09-09T18:20:46.412Z,73.80
2022-09-09T18:23:14.602Z,74.40
2022-09-09T18:25:42.453Z,75.30
2022-09-09T18:28:11.677Z,75.70
2022-09-09T18:30:41.307Z,75.80
2022-09-09T18:33:09.124Z,75.40
2022-09-09T18:35:38.162Z,76.00
2022-09-09T18:38:20.238Z,75.20
2022-09-09T18:40:51.120Z,73.90
2022-09-09T18:43:19.215Z,73.60
2022-09-09T18:45:47.064Z,73.30
2022-09-09T18:48:14.844Z,72.90
2022-09-09T18:50:42.686Z,72.80
2022-09-09T18:53:16.898Z,73.50
2022-09-09T18:55:44.802Z,73.40
2022-09-09T18:58:13.934Z,73.20
2022-09-09T19:00:47.135Z,73.60
2022-09-09T19:03:17.628Z,73.90
2022-09-09T19:05:47.265Z,73.90
2022-09-09T19:08:16.490Z,74.20
2022-09-09T19:10:44.889Z,73.90
2022-09-09T19:13:18.631Z,73.80
2022-09-09T19:15:46.537Z,73.70
2022-09-09T19:18:14.443Z,73.40
2022-09-09T19:20:42.218Z,73.90
2022-09-09T19:23:10.184Z,74.30
2022-09-09T19:25:39.660Z,74.80
2022-09-09T19:28:07.464Z,74.70
2022-09-09T19:30:37.510Z,75.10
2022-09-09T19:33:05.644Z,75.20
2022-09-09T19:35:33.507Z,75.40
2022-09-09T19:38:01.828Z,75.40
2022-09-09T19:40:30.811Z,75.40
2022-09-09T19:43:02.184Z,75.70
2022-09-09T19:45:35.998Z,75.30
2022-09-09T19:48:07.282Z,75.50
2022-09-09T19:50:36.800Z,75.30
2022-09-09T19:53:04.717Z,75.40
2022-09-09T19:55:32.592Z,75.60
2022-09-09T19:58:01.876Z,75.60
2022-09-09T20:00:29.603Z,75.90
2022-09-09T20:03:18.101Z,76.10
2022-09-09T20:05:50.322Z,76.40
2022-09-09T20:08:18.120Z,77.20
2022-09-09T20:10:52.911Z,77.50
2022-09-09T20:13:22.167Z,77.80
2022-09-09T20:15:58.507Z,78.10
2022-09-09T20:18:29.418Z,78.60
2022-09-09T20:20:59.699Z,78.80
2022-09-09T20:23:28.286Z,79.00
2022-09-09T20:25:56.650Z,79.10
2022-09-09T20:28:25.830Z,79.50
2022-09-09T20:30:53.643Z,79.70
2022-09-09T20:33:21.825Z,79.40
2022-09-09T20:35:50.423Z,79.40
2022-09-09T20:38:24.517Z,78.90
2022-09-09T20:40:54.443Z,78.90
2022-09-09T20:43:23.301Z,78.70
2022-09-09T20:45:57.560Z,78.70
2022-09-09T20:48:28.675Z,78.40
2022-09-09T20:50:56.503Z,78.40
2022-09-09T20:53:25.162Z,78.90
2022-09-09T20:55:56.102Z,79.10
2022-09-09T20:58:24.811Z,79.10
2022-09-09T21:01:00.396Z,78.90
2022-09-09T21:03:31.039Z,79.00
2022-09-09T21:05:59.959Z,78.60
2022-09-09T21:08:28.183Z,78.60
2022-09-09T21:10:56.029Z,78.50
2022-09-09T21:13:24.298Z,77.60
2022-09-09T21:15:54.004Z,77.20
2022-09-09T21:18:23.213Z,77.00
2022-09-09T21:20:53.023Z,77.20
2022-09-09T21:23:21.276Z,77.40
2022-09-09T21:25:49.330Z,77.50
2022-09-09T21:28:18.556Z,77.80
2022-09-09T21:30:50.379Z,78.10
2022-09-09T21:33:22.318Z,77.70
2022-09-09T21:35:51.140Z,77.30
2022-09-09T21:38:21.493Z,76.70
2022-09-09T21:40:50.079Z,76.10
2022-09-09T21:43:19.242Z,76.30
2022-09-09T21:45:47.645Z,75.70
2022-09-09T21:48:16.922Z,75.80
2022-09-09T21:50:47.550Z,75.90
2022-09-09T21:53:20.205Z,75.70
2022-09-09T21:55:49.638Z,75.50
2022-09-09T21:58:18.673Z,75.00
2022-09-09T22:00:47.839Z,75.40
2022-09-09T22:03:17.485Z,75.30
2022-09-09T22:05:49.713Z,75.00
2022-09-09T22:08:21.141Z,74.20
2022-09-09T22:10:49.281Z,74.40
2022-09-09T22:13:19.963Z,74.50
2022-09-09T22:15:49.300Z,74.40
2022-09-09T22:18:18.714Z,74.30
2022-09-09T22:21:01.045Z,74.10
2022-09-09T22:23:30.925Z,74.10
2022-09-09T22:26:04.188Z,73.90
2022-09-09T22:28:32.469Z,73.80
2022-09-09T22:31:00.992Z,73.90
2022-09-09T22:33:38.660Z,74.00
2022-09-09T22:36:08.544Z,74.10
2022-09-09T22:38:36.518Z,73.90
2022-09-09T22:41:06.271Z,74.10
2022-09-09T22:43:34.293Z,73.70
2022-09-09T22:46:02.793Z,73.60
2022-09-09T22:48:33.645Z,73.80
2022-09-09T22:51:04.623Z,74.00
2022-09-09T22:53:35.600Z,73.80
2022-09-09T22:56:07.076Z,74.20
2022-09-09T22:58:37.633Z,74.40
2022-09-09T23:01:11.290Z,74.30
2022-09-09T23:03:41.241Z,74.50
2022-09-09T23:06:12.050Z,74.90
2022-09-09T23:08:41.513Z,75.00
2022-09-09T23:11:13.638Z,75.40
2022-09-09T23:13:46.467Z,75.80
2022-09-09T23:16:16.637Z,75.60
2022-09-09T23:18:47.282Z,75.50
2022-09-09T23:21:20.160Z,75.50
2022-09-09T23:23:52.919Z,75.20
2022-09-09T23:26:23.099Z,75.10
2022-09-09T23:28:52.788Z,74.90
2022-09-09T23:31:27.865Z,74.90
2022-09-09T23:33:58.566Z,74.90
2022-09-09T23:39:18.993Z,74.60
2022-09-09T23:41:47.507Z,74.90
2022-09-09T23:44:15.375Z,75.00
2022-09-09T23:46:43.440Z,74.80
2022-09-09T23:49:11.954Z,74.70
2022-09-09T23:51:41.333Z,74.80
2022-09-09T23:54:11.944Z,74.90
2022-09-09T23:56:43.337Z,74.70
2022-09-09T23:59:12.490Z,75.20
